sensor_id;sensor_type;location;lat;lon;timestamp;pressure;altitude;pressure_sealevel;temperature;humidity
9740;BME280;4909;42.680;26.324;2023-12-14T00:00:16;97769.22;;;9.49;100.00
9740;BME280;4909;42.680;26.324;2023-12-14T00:02:43;97811.06;;;9.75;100.00
9740;BME280;4909;42.680;26.324;2023-12-14T00:05:10;97714.38;;;9.02;100.00
9740;BME280;4909;42.680;26.324;2023-12-14T00:07:39;97772.47;;;9.21;100.00
9740;BME280;4909;42.680;26.324;2023-12-14T00:10:07;97765.88;;;9.12;100.00
9740;BME280;4909;42.680;26.324;2023-12-14T00:12:34;97811.47;;;9.35;100.00
9740;BME280;4909;42.680;26.324;2023-12-14T00:15:01;97768.34;;;9.15;100.00
9740;BME280;4909;42.680;26.324;2023-12-14T00:17:28;97816.13;;;9.47;100.00
9740;BME280;4909;42.680;26.324;2023-12-14T00:19:55;97812.06;;;9.40;100.00
9740;BME280;4909;42.680;26.324;2023-12-14T00:22:22;97815.50;;;9.42;100.00
9740;BME280;4909;42.680;26.324;2023-12-14T00:24:51;97795.75;;;9.32;100.00
9740;BME280;4909;42.680;26.324;2023-12-14T00:27:18;97815.81;;;9.36;100.00
9740;BME280;4909;42.680;26.324;2023-12-14T00:29:45;97794.50;;;9.22;100.00
9740;BME280;4909;42.680;26.324;2023-12-14T00:32:12;97802.59;;;9.36;100.00
9740;BME280;4909;42.680;26.324;2023-12-14T00:34:39;97820.13;;;9.38;100.00
9740;BME280;4909;42.680;26.324;2023-12-14T00:37:06;97819.09;;;9.41;100.00
9740;BME280;4909;42.680;26.324;2023-12-14T00:39:33;97808.13;;;9.31;100.00
9740;BME280;4909;42.680;26.324;2023-12-14T00:42:02;97830.63;;;9.40;100.00
9740;BME280;4909;42.680;26.324;2023-12-14T00:44:29;97817.00;;;9.47;100.00
9740;BME280;4909;42.680;26.324;2023-12-14T00:46:56;97786.41;;;9.25;100.00
9740;BME280;4909;42.680;26.324;2023-12-14T00:49:24;97699.81;;;8.61;100.00
9740;BME280;4909;42.680;26.324;2023-12-14T00:51:53;97744.03;;;8.92;100.00
9740;BME280;4909;42.680;26.324;2023-12-14T00:54:20;97755.84;;;9.02;100.00
9740;BME280;4909;42.680;26.324;2023-12-14T00:56:47;97729.34;;;8.69;100.00
9740;BME280;4909;42.680;26.324;2023-12-14T00:59:15;97793.16;;;9.14;100.00
9740;BME280;4909;42.680;26.324;2023-12-14T01:01:43;97830.13;;;9.49;100.00
9740;BME280;4909;42.680;26.324;2023-12-14T01:04:10;97721.09;;;8.75;100.00
9740;BME280;4909;42.680;26.324;2023-12-14T01:06:35;97743.41;;;8.87;100.00
9740;BME280;4909;42.680;26.324;2023-12-14T01:09:02;97664.25;;;8.49;100.00
9740;BME280;4909;42.680;26.324;2023-12-14T01:11:29;97833.38;;;9.38;100.00
9740;BME280;4909;42.680;26.324;2023-12-14T01:13:56;97784.16;;;9.17;100.00
9740;BME280;4909;42.680;26.324;2023-12-14T01:16:27;97793.75;;;9.20;100.00
9740;BME280;4909;42.680;26.324;2023-12-14T01:18:54;97774.94;;;9.08;100.00
9740;BME280;4909;42.680;26.324;2023-12-14T01:21:21;97814.91;;;9.37;100.00
9740;BME280;4909;42.680;26.324;2023-12-14T01:23:48;97821.22;;;9.34;100.00
9740;BME280;4909;42.680;26.324;2023-12-14T01:26:15;97734.78;;;8.83;100.00
9740;BME280;4909;42.680;26.324;2023-12-14T01:28:43;97722.59;;;8.81;100.00
9740;BME280;4909;42.680;26.324;2023-12-14T01:31:10;97781.56;;;9.33;100.00
9740;BME280;4909;42.680;26.324;2023-12-14T01:33:39;97786.19;;;9.29;100.00
9740;BME280;4909;42.680;26.324;2023-12-14T01:36:06;97800.97;;;9.33;100.00
9740;BME280;4909;42.680;26.324;2023-12-14T01:38:33;97722.72;;;8.78;100.00
9740;BME280;4909;42.680;26.324;2023-12-14T01:41:00;97718.75;;;8.86;100.00
9740;BME280;4909;42.680;26.324;2023-12-14T01:43:27;97714.53;;;8.82;100.00
9740;BME280;4909;42.680;26.324;2023-12-14T01:45:54;97711.28;;;8.77;100.00
9740;BME280;4909;42.680;26.324;2023-12-14T01:48:21;97794.50;;;9.39;100.00
9740;BME280;4909;42.680;26.324;2023-12-14T01:50:50;97766.50;;;9.18;100.00
9740;BME280;4909;42.680;26.324;2023-12-14T01:53:17;97789.97;;;9.41;100.00
9740;BME280;4909;42.680;26.324;2023-12-14T01:55:44;97743.09;;;9.26;100.00
9740;BME280;4909;42.680;26.324;2023-12-14T01:58:11;97705.81;;;8.97;100.00
9740;BME280;4909;42.680;26.324;2023-12-14T02:00:43;97669.13;;;8.57;100.00
9740;BME280;4909;42.680;26.324;2023-12-14T02:03:12;97716.09;;;9.03;100.00
9740;BME280;4909;42.680;26.324;2023-12-14T02:05:40;97795.25;;;9.41;100.00
9740;BME280;4909;42.680;26.324;2023-12-14T02:08:08;97728.31;;;8.89;100.00
9740;BME280;4909;42.680;26.324;2023-12-14T02:10:35;97705.13;;;8.77;100.00
9740;BME280;4909;42.680;26.324;2023-12-14T02:13:02;97793.72;;;9.37;100.00
9740;BME280;4909;42.680;26.324;2023-12-14T02:15:30;97742.13;;;9.11;100.00
9740;BME280;4909;42.680;26.324;2023-12-14T02:17:57;97793.53;;;9.40;100.00
9740;BME280;4909;42.680;26.324;2023-12-14T02:20:24;97784.09;;;9.51;100.00
9740;BME280;4909;42.680;26.324;2023-12-14T02:22:53;97737.50;;;9.32;100.00
9740;BME280;4909;42.680;26.324;2023-12-14T02:25:21;97689.88;;;8.99;100.00
9740;BME280;4909;42.680;26.324;2023-12-14T02:27:48;97631.78;;;8.80;100.00
9740;BME280;4909;42.680;26.324;2023-12-14T02:30:17;97684.63;;;9.14;100.00
9740;BME280;4909;42.680;26.324;2023-12-14T02:32:45;97662.38;;;9.01;100.00
9740;BME280;4909;42.680;26.324;2023-12-14T02:35:12;97758.56;;;9.66;100.00
9740;BME280;4909;42.680;26.324;2023-12-14T02:37:39;97722.28;;;9.35;100.00
9740;BME280;4909;42.680;26.324;2023-12-14T02:40:09;97754.78;;;9.54;100.00
9740;BME280;4909;42.680;26.324;2023-12-14T02:42:36;97684.63;;;9.14;100.00
9740;BME280;4909;42.680;26.324;2023-12-14T02:45:04;97757.97;;;9.61;100.00
9740;BME280;4909;42.680;26.324;2023-12-14T02:47:31;97739.59;;;9.58;100.00
9740;BME280;4909;42.680;26.324;2023-12-14T02:49:58;97658.47;;;9.08;100.00
9740;BME280;4909;42.680;26.324;2023-12-14T02:52:25;97762.16;;;9.81;100.00
9740;BME280;4909;42.680;26.324;2023-12-14T02:54:52;97674.28;;;9.26;100.00
9740;BME280;4909;42.680;26.324;2023-12-14T02:57:21;97747.56;;;9.58;100.00
9740;BME280;4909;42.680;26.324;2023-12-14T02:59:48;97748.03;;;9.49;100.00
9740;BME280;4909;42.680;26.324;2023-12-14T03:02:15;97666.41;;;9.08;100.00
9740;BME280;4909;42.680;26.324;2023-12-14T03:04:42;97728.22;;;9.56;100.00
9740;BME280;4909;42.680;26.324;2023-12-14T03:07:09;97722.13;;;9.54;100.00
9740;BME280;4909;42.680;26.324;2023-12-14T03:09:39;97758.66;;;9.80;100.00
9740;BME280;4909;42.680;26.324;2023-12-14T03:12:07;97763.53;;;9.88;100.00
9740;BME280;4909;42.680;26.324;2023-12-14T03:14:35;97656.19;;;9.34;100.00
9740;BME280;4909;42.680;26.324;2023-12-14T03:17:02;97776.81;;;10.19;100.00
9740;BME280;4909;42.680;26.324;2023-12-14T03:19:29;97776.44;;;10.10;100.00
9740;BME280;4909;42.680;26.324;2023-12-14T03:21:56;97787.13;;;10.08;100.00
9740;BME280;4909;42.680;26.324;2023-12-14T03:24:23;97699.59;;;9.47;100.00
9740;BME280;4909;42.680;26.324;2023-12-14T03:26:50;97798.00;;;10.03;100.00
9740;BME280;4909;42.680;26.324;2023-12-14T03:29:18;97785.44;;;9.91;100.00
9740;BME280;4909;42.680;26.324;2023-12-14T03:31:48;97715.66;;;9.44;100.00
9740;BME280;4909;42.680;26.324;2023-12-14T03:34:15;97629.00;;;8.99;100.00
9740;BME280;4909;42.680;26.324;2023-12-14T03:36:42;97736.50;;;9.50;100.00
9740;BME280;4909;42.680;26.324;2023-12-14T03:39:08;97798.59;;;9.93;100.00
9740;BME280;4909;42.680;26.324;2023-12-14T03:41:35;97806.88;;;10.02;100.00
9740;BME280;4909;42.680;26.324;2023-12-14T03:44:02;97728.84;;;9.77;100.00
9740;BME280;4909;42.680;26.324;2023-12-14T03:46:30;97739.78;;;9.86;100.00
9740;BME280;4909;42.680;26.324;2023-12-14T03:48:58;97729.44;;;9.66;100.00
9740;BME280;4909;42.680;26.324;2023-12-14T03:51:24;97695.03;;;9.49;100.00
9740;BME280;4909;42.680;26.324;2023-12-14T03:53:51;97755.91;;;9.97;100.00
9740;BME280;4909;42.680;26.324;2023-12-14T03:56:18;97667.28;;;9.40;100.00
9740;BME280;4909;42.680;26.324;2023-12-14T03:58:45;97791.31;;;10.12;100.00
9740;BME280;4909;42.680;26.324;2023-12-14T04:01:16;97700.94;;;9.54;100.00
9740;BME280;4909;42.680;26.324;2023-12-14T04:03:43;97697.97;;;9.60;100.00
9740;BME280;4909;42.680;26.324;2023-12-14T04:06:12;97791.16;;;10.15;100.00
9740;BME280;4909;42.680;26.324;2023-12-14T04:08:40;97703.88;;;9.65;100.00
9740;BME280;4909;42.680;26.324;2023-12-14T04:11:07;97795.56;;;10.16;100.00
9740;BME280;4909;42.680;26.324;2023-12-14T04:13:34;97719.78;;;9.81;100.00
9740;BME280;4909;42.680;26.324;2023-12-14T04:16:04;97790.09;;;10.19;100.00
9740;BME280;4909;42.680;26.324;2023-12-14T04:18:32;97741.47;;;10.03;100.00
9740;BME280;4909;42.680;26.324;2023-12-14T04:20:59;97707.03;;;9.56;100.00
9740;BME280;4909;42.680;26.324;2023-12-14T04:23:27;97676.88;;;9.43;100.00
9740;BME280;4909;42.680;26.324;2023-12-14T04:25:54;97794.16;;;10.09;100.00
9740;BME280;4909;42.680;26.324;2023-12-14T04:28:21;97759.44;;;9.82;100.00
9740;BME280;4909;42.680;26.324;2023-12-14T04:30:48;97792.44;;;9.92;100.00
9740;BME280;4909;42.680;26.324;2023-12-14T04:33:15;97788.69;;;9.96;100.00
9740;BME280;4909;42.680;26.324;2023-12-14T04:35:42;97781.59;;;9.97;100.00
9740;BME280;4909;42.680;26.324;2023-12-14T04:38:08;97786.13;;;10.11;100.00
9740;BME280;4909;42.680;26.324;2023-12-14T04:40:37;97788.19;;;10.06;100.00
9740;BME280;4909;42.680;26.324;2023-12-14T04:43:04;97803.22;;;10.05;100.00
9740;BME280;4909;42.680;26.324;2023-12-14T04:45:31;97734.47;;;9.71;100.00
9740;BME280;4909;42.680;26.324;2023-12-14T04:47:59;97701.47;;;9.60;100.00
9740;BME280;4909;42.680;26.324;2023-12-14T04:50:26;97728.66;;;9.64;100.00
9740;BME280;4909;42.680;26.324;2023-12-14T04:52:53;97797.25;;;10.01;100.00
9740;BME280;4909;42.680;26.324;2023-12-14T04:55:20;97743.47;;;9.68;100.00
9740;BME280;4909;42.680;26.324;2023-12-14T04:57:48;97771.06;;;9.80;100.00
9740;BME280;4909;42.680;26.324;2023-12-14T05:00:16;97771.81;;;9.97;100.00
9740;BME280;4909;42.680;26.324;2023-12-14T05:02:46;97745.50;;;9.94;100.00
9740;BME280;4909;42.680;26.324;2023-12-14T05:05:14;97748.47;;;10.04;100.00
9740;BME280;4909;42.680;26.324;2023-12-14T05:07:41;97763.78;;;10.15;100.00
9740;BME280;4909;42.680;26.324;2023-12-14T05:10:09;97737.97;;;10.02;100.00
9740;BME280;4909;42.680;26.324;2023-12-14T05:12:36;97784.25;;;10.28;100.00
9740;BME280;4909;42.680;26.324;2023-12-14T05:15:06;97769.44;;;10.09;100.00
9740;BME280;4909;42.680;26.324;2023-12-14T05:17:34;97775.34;;;10.14;100.00
9740;BME280;4909;42.680;26.324;2023-12-14T05:20:03;97728.59;;;9.97;100.00
9740;BME280;4909;42.680;26.324;2023-12-14T05:22:30;97721.38;;;9.99;100.00
9740;BME280;4909;42.680;26.324;2023-12-14T05:24:57;97687.38;;;9.60;100.00
9740;BME280;4909;42.680;26.324;2023-12-14T05:27:24;97780.56;;;10.15;100.00
9740;BME280;4909;42.680;26.324;2023-12-14T05:29:51;97786.97;;;10.27;100.00
9740;BME280;4909;42.680;26.324;2023-12-14T05:32:20;97776.28;;;10.28;100.00
9740;BME280;4909;42.680;26.324;2023-12-14T05:34:47;97663.28;;;9.65;100.00
9740;BME280;4909;42.680;26.324;2023-12-14T05:37:14;97695.91;;;9.65;100.00
9740;BME280;4909;42.680;26.324;2023-12-14T05:39:41;97770.03;;;9.98;100.00
9740;BME280;4909;42.680;26.324;2023-12-14T05:42:10;97684.91;;;9.57;100.00
9740;BME280;4909;42.680;26.324;2023-12-14T05:44:37;97785.06;;;9.97;100.00
9740;BME280;4909;42.680;26.324;2023-12-14T05:47:04;97665.06;;;9.33;100.00
9740;BME280;4909;42.680;26.324;2023-12-14T05:49:43;97713.38;;;9.53;100.00
9740;BME280;4909;42.680;26.324;2023-12-14T05:52:11;97753.25;;;9.97;100.00
9740;BME280;4909;42.680;26.324;2023-12-14T05:54:38;97751.31;;;9.85;100.00
9740;BME280;4909;42.680;26.324;2023-12-14T05:57:06;97778.16;;;9.95;100.00
9740;BME280;4909;42.680;26.324;2023-12-14T05:59:33;97639.09;;;9.39;100.00
9740;BME280;4909;42.680;26.324;2023-12-14T06:02:00;97796.41;;;10.17;100.00
9740;BME280;4909;42.680;26.324;2023-12-14T06:04:27;97788.94;;;10.08;100.00
9740;BME280;4909;42.680;26.324;2023-12-14T06:06:56;97788.78;;;10.11;100.00
9740;BME280;4909;42.680;26.324;2023-12-14T06:09:23;97796.88;;;10.08;100.00
9740;BME280;4909;42.680;26.324;2023-12-14T06:11:57;97746.94;;;9.84;100.00
9740;BME280;4909;42.680;26.324;2023-12-14T06:14:24;97785.72;;;10.18;100.00
9740;BME280;4909;42.680;26.324;2023-12-14T06:16:51;97799.03;;;10.17;100.00
9740;BME280;4909;42.680;26.324;2023-12-14T06:19:18;97792.09;;;10.14;100.00
9740;BME280;4909;42.680;26.324;2023-12-14T06:21:45;97800.50;;;10.22;100.00
9740;BME280;4909;42.680;26.324;2023-12-14T06:24:14;97763.03;;;9.97;100.00
9740;BME280;4909;42.680;26.324;2023-12-14T06:26:41;97822.50;;;10.40;100.00
9740;BME280;4909;42.680;26.324;2023-12-14T06:29:08;97777.59;;;10.21;100.00
9740;BME280;4909;42.680;26.324;2023-12-14T06:31:35;97805.22;;;10.33;100.00
9740;BME280;4909;42.680;26.324;2023-12-14T06:34:02;97731.84;;;9.86;100.00
9740;BME280;4909;42.680;26.324;2023-12-14T06:36:30;97797.09;;;10.36;100.00
9740;BME280;4909;42.680;26.324;2023-12-14T06:38:59;97772.47;;;10.18;100.00
9740;BME280;4909;42.680;26.324;2023-12-14T06:41:28;97822.25;;;10.44;100.00
9740;BME280;4909;42.680;26.324;2023-12-14T06:43:55;97766.88;;;10.23;100.00
9740;BME280;4909;42.680;26.324;2023-12-14T06:46:22;97786.81;;;10.45;100.00
9740;BME280;4909;42.680;26.324;2023-12-14T06:48:49;97795.19;;;10.54;100.00
9740;BME280;4909;42.680;26.324;2023-12-14T06:51:17;97774.75;;;10.40;100.00
9740;BME280;4909;42.680;26.324;2023-12-14T06:53:44;97778.25;;;10.40;100.00
9740;BME280;4909;42.680;26.324;2023-12-14T06:56:11;97807.66;;;10.67;100.00
9740;BME280;4909;42.680;26.324;2023-12-14T06:58:41;97805.78;;;10.69;100.00
9740;BME280;4909;42.680;26.324;2023-12-14T07:01:12;97822.22;;;10.90;100.00
9740;BME280;4909;42.680;26.324;2023-12-14T07:03:40;97783.28;;;10.75;100.00
9740;BME280;4909;42.680;26.324;2023-12-14T07:06:11;97755.13;;;10.58;100.00
9740;BME280;4909;42.680;26.324;2023-12-14T07:08:38;97834.69;;;11.04;100.00
9740;BME280;4909;42.680;26.324;2023-12-14T07:11:06;97826.34;;;11.10;100.00
9740;BME280;4909;42.680;26.324;2023-12-14T07:13:33;97839.09;;;11.19;100.00
9740;BME280;4909;42.680;26.324;2023-12-14T07:16:04;97775.75;;;10.83;100.00
9740;BME280;4909;42.680;26.324;2023-12-14T07:18:31;97753.16;;;10.76;100.00
9740;BME280;4909;42.680;26.324;2023-12-14T07:20:58;97799.34;;;11.03;100.00
9740;BME280;4909;42.680;26.324;2023-12-14T07:23:25;97844.41;;;11.33;99.58
9740;BME280;4909;42.680;26.324;2023-12-14T07:25:52;97804.38;;;11.08;100.00
9740;BME280;4909;42.680;26.324;2023-12-14T07:28:20;97846.44;;;11.44;100.00
9740;BME280;4909;42.680;26.324;2023-12-14T07:30:47;97810.66;;;11.35;99.84
9740;BME280;4909;42.680;26.324;2023-12-14T07:33:16;97829.38;;;11.62;99.21
9740;BME280;4909;42.680;26.324;2023-12-14T07:35:43;97843.50;;;11.62;98.92
9740;BME280;4909;42.680;26.324;2023-12-14T07:38:10;97844.81;;;11.85;97.82
9740;BME280;4909;42.680;26.324;2023-12-14T07:40:37;97829.03;;;11.82;97.81
9740;BME280;4909;42.680;26.324;2023-12-14T07:43:05;97825.50;;;11.82;97.52
9740;BME280;4909;42.680;26.324;2023-12-14T07:45:32;97837.13;;;11.95;97.46
9740;BME280;4909;42.680;26.324;2023-12-14T07:48:00;97849.81;;;12.04;96.62
9740;BME280;4909;42.680;26.324;2023-12-14T07:50:28;97849.25;;;11.99;96.63
9740;BME280;4909;42.680;26.324;2023-12-14T07:52:55;97846.91;;;11.80;97.08
9740;BME280;4909;42.680;26.324;2023-12-14T07:55:22;97853.34;;;11.90;97.54
9740;BME280;4909;42.680;26.324;2023-12-14T07:57:49;97813.56;;;11.74;97.19
9740;BME280;4909;42.680;26.324;2023-12-14T08:00:17;97848.59;;;11.95;97.40
9740;BME280;4909;42.680;26.324;2023-12-14T08:02:44;97843.00;;;12.00;97.21
9740;BME280;4909;42.680;26.324;2023-12-14T08:05:11;97849.25;;;11.99;97.56
9740;BME280;4909;42.680;26.324;2023-12-14T08:07:39;97841.00;;;12.03;97.34
9740;BME280;4909;42.680;26.324;2023-12-14T08:10:07;97845.81;;;12.11;97.35
9740;BME280;4909;42.680;26.324;2023-12-14T08:12:34;97847.16;;;12.18;97.45
9740;BME280;4909;42.680;26.324;2023-12-14T08:15:02;97749.56;;;11.63;97.74
9740;BME280;4909;42.680;26.324;2023-12-14T08:17:29;97811.66;;;12.05;98.08
9740;BME280;4909;42.680;26.324;2023-12-14T08:19:56;97844.75;;;12.28;97.25
9740;BME280;4909;42.680;26.324;2023-12-14T08:22:23;97819.69;;;12.17;97.06
9740;BME280;4909;42.680;26.324;2023-12-14T08:24:51;97827.28;;;12.24;97.09
9740;BME280;4909;42.680;26.324;2023-12-14T08:27:18;97712.63;;;11.59;97.51
9740;BME280;4909;42.680;26.324;2023-12-14T08:29:45;97835.25;;;12.38;97.40
9740;BME280;4909;42.680;26.324;2023-12-14T08:32:12;97747.00;;;11.90;97.50
9740;BME280;4909;42.680;26.324;2023-12-14T08:34:40;97777.03;;;12.19;96.93
9740;BME280;4909;42.680;26.324;2023-12-14T08:37:07;97841.75;;;12.73;96.39
9740;BME280;4909;42.680;26.324;2023-12-14T08:39:34;97840.38;;;12.68;96.72
9740;BME280;4909;42.680;26.324;2023-12-14T08:42:03;97843.66;;;12.58;97.77
9740;BME280;4909;42.680;26.324;2023-12-14T08:44:30;97839.63;;;12.66;97.70
9740;BME280;4909;42.680;26.324;2023-12-14T08:46:57;97826.88;;;12.83;97.56
9740;BME280;4909;42.680;26.324;2023-12-14T08:49:24;97737.88;;;12.48;97.00
9740;BME280;4909;42.680;26.324;2023-12-14T08:51:51;97802.44;;;13.03;95.96
9740;BME280;4909;42.680;26.324;2023-12-14T08:54:18;97803.38;;;13.17;95.28
9740;BME280;4909;42.680;26.324;2023-12-14T08:56:45;97821.72;;;13.34;94.76
9740;BME280;4909;42.680;26.324;2023-12-14T08:59:14;97825.00;;;13.37;94.90
9740;BME280;4909;42.680;26.324;2023-12-14T09:01:41;97829.94;;;13.43;95.39
9740;BME280;4909;42.680;26.324;2023-12-14T09:04:08;97816.59;;;13.43;94.90
9740;BME280;4909;42.680;26.324;2023-12-14T09:06:35;97791.84;;;13.41;94.43
9740;BME280;4909;42.680;26.324;2023-12-14T09:09:02;97771.81;;;13.23;94.71
9740;BME280;4909;42.680;26.324;2023-12-14T09:11:29;97717.22;;;13.03;94.74
9740;BME280;4909;42.680;26.324;2023-12-14T09:13:56;97800.63;;;13.43;94.76
9740;BME280;4909;42.680;26.324;2023-12-14T09:16:25;97827.16;;;13.70;94.42
9740;BME280;4909;42.680;26.324;2023-12-14T09:18:52;97807.13;;;13.52;95.25
9740;BME280;4909;42.680;26.324;2023-12-14T09:21:19;97806.16;;;13.78;95.08
9740;BME280;4909;42.680;26.324;2023-12-14T09:23:46;97743.47;;;13.60;94.21
9740;BME280;4909;42.680;26.324;2023-12-14T09:26:14;97796.09;;;14.07;94.14
9740;BME280;4909;42.680;26.324;2023-12-14T09:28:41;97731.47;;;13.78;93.57
9740;BME280;4909;42.680;26.324;2023-12-14T09:31:08;97766.41;;;14.12;92.99
9740;BME280;4909;42.680;26.324;2023-12-14T09:33:36;97762.72;;;14.25;92.53
9740;BME280;4909;42.680;26.324;2023-12-14T09:36:04;97785.94;;;14.49;92.63
9740;BME280;4909;42.680;26.324;2023-12-14T09:38:31;97778.50;;;14.65;92.16
9740;BME280;4909;42.680;26.324;2023-12-14T09:40:58;97774.34;;;14.85;90.95
9740;BME280;4909;42.680;26.324;2023-12-14T09:43:25;97752.63;;;14.89;90.38
9740;BME280;4909;42.680;26.324;2023-12-14T09:45:54;97718.81;;;14.77;90.17
9740;BME280;4909;42.680;26.324;2023-12-14T09:48:22;97806.72;;;15.39;89.15
9740;BME280;4909;42.680;26.324;2023-12-14T09:50:51;97784.59;;;15.48;87.56
9740;BME280;4909;42.680;26.324;2023-12-14T09:53:18;97703.09;;;15.07;87.15
9740;BME280;4909;42.680;26.324;2023-12-14T09:55:45;97786.09;;;15.52;86.42
9740;BME280;4909;42.680;26.324;2023-12-14T09:58:12;97753.19;;;15.16;86.23
9740;BME280;4909;42.680;26.324;2023-12-14T10:00:40;97690.81;;;14.94;85.89
9740;BME280;4909;42.680;26.324;2023-12-14T10:03:18;97772.75;;;15.63;85.76
9740;BME280;4909;42.680;26.324;2023-12-14T10:05:46;97785.28;;;15.62;85.31
9740;BME280;4909;42.680;26.324;2023-12-14T10:08:15;97765.44;;;15.65;85.20
9740;BME280;4909;42.680;26.324;2023-12-14T10:10:42;97799.38;;;15.87;85.44
9740;BME280;4909;42.680;26.324;2023-12-14T10:13:10;97760.69;;;15.57;84.58
9740;BME280;4909;42.680;26.324;2023-12-14T10:15:41;97688.81;;;15.19;84.52
9740;BME280;4909;42.680;26.324;2023-12-14T10:18:08;97698.63;;;15.30;84.27
9740;BME280;4909;42.680;26.324;2023-12-14T10:20:35;97776.88;;;15.67;83.82
9740;BME280;4909;42.680;26.324;2023-12-14T10:23:04;97809.59;;;15.93;83.65
9740;BME280;4909;42.680;26.324;2023-12-14T10:25:35;97729.41;;;15.47;83.58
9740;BME280;4909;42.680;26.324;2023-12-14T10:28:02;97795.38;;;15.81;83.07
9740;BME280;4909;42.680;26.324;2023-12-14T10:30:29;97801.56;;;15.82;83.36
9740;BME280;4909;42.680;26.324;2023-12-14T10:32:57;97786.13;;;15.63;83.34
9740;BME280;4909;42.680;26.324;2023-12-14T10:35:24;97779.91;;;15.51;83.60
9740;BME280;4909;42.680;26.324;2023-12-14T10:37:52;97766.16;;;15.56;83.74
9740;BME280;4909;42.680;26.324;2023-12-14T10:40:19;97788.19;;;15.82;83.64
9740;BME280;4909;42.680;26.324;2023-12-14T10:42:49;97781.88;;;16.05;83.08
9740;BME280;4909;42.680;26.324;2023-12-14T10:45:17;97724.22;;;15.79;82.24
9740;BME280;4909;42.680;26.324;2023-12-14T10:47:47;97774.41;;;16.20;82.24
9740;BME280;4909;42.680;26.324;2023-12-14T10:50:14;97700.88;;;15.81;82.20
9740;BME280;4909;42.680;26.324;2023-12-14T10:52:44;97748.72;;;16.17;80.93
9740;BME280;4909;42.680;26.324;2023-12-14T10:55:27;97678.97;;;15.76;81.09
9740;BME280;4909;42.680;26.324;2023-12-14T10:57:58;97685.66;;;15.92;80.76
9740;BME280;4909;42.680;26.324;2023-12-14T11:00:26;97748.94;;;16.36;80.49
9740;BME280;4909;42.680;26.324;2023-12-14T11:02:54;97737.25;;;16.37;80.91
9740;BME280;4909;42.680;26.324;2023-12-14T11:05:22;97759.53;;;16.60;80.49
9740;BME280;4909;42.680;26.324;2023-12-14T11:07:55;97689.94;;;16.27;80.27
9740;BME280;4909;42.680;26.324;2023-12-14T11:10:27;97681.00;;;16.37;79.48
9740;BME280;4909;42.680;26.324;2023-12-14T11:13:00;97753.56;;;16.88;79.36
9740;BME280;4909;42.680;26.324;2023-12-14T11:15:28;97681.44;;;16.53;79.48
9740;BME280;4909;42.680;26.324;2023-12-14T11:18:20;97747.22;;;17.10;78.89
9740;BME280;4909;42.680;26.324;2023-12-14T11:20:49;97643.38;;;16.50;78.29
9740;BME280;4909;42.680;26.324;2023-12-14T11:23:18;97719.66;;;16.99;78.96
9740;BME280;4909;42.680;26.324;2023-12-14T11:25:54;97589.69;;;16.20;78.75
9740;BME280;4909;42.680;26.324;2023-12-14T11:28:23;97595.53;;;16.25;78.49
9740;BME280;4909;42.680;26.324;2023-12-14T11:30:50;97738.47;;;17.08;78.50
9740;BME280;4909;42.680;26.324;2023-12-14T11:33:17;97734.22;;;17.06;79.02
9740;BME280;4909;42.680;26.324;2023-12-14T11:35:45;97603.91;;;16.31;78.66
9740;BME280;4909;42.680;26.324;2023-12-14T11:38:12;97736.19;;;17.04;79.13
9740;BME280;4909;42.680;26.324;2023-12-14T11:40:40;97661.19;;;16.72;79.77
9740;BME280;4909;42.680;26.324;2023-12-14T11:43:07;97699.22;;;16.86;79.59
9740;BME280;4909;42.680;26.324;2023-12-14T11:45:37;97740.75;;;17.13;79.54
9740;BME280;4909;42.680;26.324;2023-12-14T11:48:09;97601.34;;;16.30;79.90
9740;BME280;4909;42.680;26.324;2023-12-14T11:50:37;97732.97;;;17.10;80.13
9740;BME280;4909;42.680;26.324;2023-12-14T11:53:05;97737.47;;;17.09;79.85
9740;BME280;4909;42.680;26.324;2023-12-14T11:55:36;97671.59;;;16.65;80.38
9740;BME280;4909;42.680;26.324;2023-12-14T11:58:04;97735.53;;;17.11;79.94
9740;BME280;4909;42.680;26.324;2023-12-14T12:00:33;97602.03;;;16.32;79.97
9740;BME280;4909;42.680;26.324;2023-12-14T12:03:11;97582.75;;;16.17;79.92
9740;BME280;4909;42.680;26.324;2023-12-14T12:05:42;97616.75;;;16.37;80.41
9740;BME280;4909;42.680;26.324;2023-12-14T12:08:13;97658.19;;;16.65;80.77
9740;BME280;4909;42.680;26.324;2023-12-14T12:10:42;97566.75;;;16.06;81.08
9740;BME280;4909;42.680;26.324;2023-12-14T12:13:12;97478.56;;;15.52;81.54
9740;BME280;4909;42.680;26.324;2023-12-14T12:15:40;97694.66;;;16.77;81.81
9740;BME280;4909;42.680;26.324;2023-12-14T12:18:16;97614.47;;;16.33;82.44
9740;BME280;4909;42.680;26.324;2023-12-14T12:20:47;97700.91;;;16.67;82.82
9740;BME280;4909;42.680;26.324;2023-12-14T12:23:20;97703.19;;;16.71;82.85
9740;BME280;4909;42.680;26.324;2023-12-14T12:25:50;97541.06;;;15.83;82.78
9740;BME280;4909;42.680;26.324;2023-12-14T12:28:17;97526.22;;;15.79;82.88
9740;BME280;4909;42.680;26.324;2023-12-14T12:30:44;97691.22;;;16.75;82.91
9740;BME280;4909;42.680;26.324;2023-12-14T12:33:11;97705.75;;;16.73;83.24
9740;BME280;4909;42.680;26.324;2023-12-14T12:35:39;97704.56;;;16.66;84.17
9740;BME280;4909;42.680;26.324;2023-12-14T12:38:07;97575.22;;;15.90;84.16
9740;BME280;4909;42.680;26.324;2023-12-14T12:40:34;97642.09;;;16.33;84.24
9740;BME280;4909;42.680;26.324;2023-12-14T12:43:01;97660.34;;;16.39;84.23
9740;BME280;4909;42.680;26.324;2023-12-14T12:45:29;97697.91;;;16.60;84.44
9740;BME280;4909;42.680;26.324;2023-12-14T12:47:57;97681.44;;;16.53;84.81
9740;BME280;4909;42.680;26.324;2023-12-14T12:50:24;97612.50;;;16.03;85.08
9740;BME280;4909;42.680;26.324;2023-12-14T12:52:51;97620.88;;;16.09;85.47
9740;BME280;4909;42.680;26.324;2023-12-14T12:55:20;97639.03;;;16.06;85.47
9740;BME280;4909;42.680;26.324;2023-12-14T12:57:48;97652.44;;;16.27;85.17
9740;BME280;4909;42.680;26.324;2023-12-14T13:00:16;97719.81;;;16.54;85.10
9740;BME280;4909;42.680;26.324;2023-12-14T13:02:44;97733.44;;;16.62;85.00
9740;BME280;4909;42.680;26.324;2023-12-14T13:05:11;97633.50;;;15.87;85.22
9740;BME280;4909;42.680;26.324;2023-12-14T13:07:41;97610.19;;;15.67;85.36
9740;BME280;4909;42.680;26.324;2023-12-14T13:10:09;97705.09;;;16.17;86.32
9740;BME280;4909;42.680;26.324;2023-12-14T13:12:38;97748.34;;;16.33;86.91